Time;durP1;ratioP1;P1;durP2;ratioP2;P2;SDS_P1;SDS_P2;PMS_P1;PMS_P2;Temp;Humidity;BMP_temperature;BMP_pressure;BME280_temperature;BME280_humidity;BME280_pressure;Samples;Min_cycle;Max_cycle;Signal;HPM_P1;HPM_P2
2022/07/19 00:00:14;;;;;;;6.32;5.80;;;;;;;;;;2081169;28;20164;-52
2022/07/19 00:01:14;;;;;;;5.20;4.80;;;;;;;;;;2081334;28;20630;-52
2022/07/19 00:02:14;;;;;;;5.47;4.97;;;;;;;;;;2081260;28;20160;-54
2022/07/19 00:03:16;;;;;;;7.32;5.45;;;;;;;;;;2081380;28;20652;-55
2022/07/19 00:04:17;;;;;;;8.07;5.68;;;;;;;;;;2080586;28;20259;-54
2022/07/19 00:05:17;;;;;;;5.90;5.00;;;;;;;;;;2081521;28;20561;-55
2022/07/19 00:06:18;;;;;;;5.03;4.50;;;;;;;;;;2081495;28;20707;-55
2022/07/19 00:07:18;;;;;;;6.20;4.50;;;;;;;;;;2081450;28;20663;-53
2022/07/19 00:08:18;;;;;;;6.95;6.18;;;;;;;;;;2081565;28;20199;-52
2022/07/19 00:09:19;;;;;;;6.72;5.40;;;;;;;;;;2081277;28;20196;-55
2022/07/19 00:10:20;;;;;;;5.50;4.68;;;;;;;;;;2081486;28;20172;-54
2022/07/19 00:11:20;;;;;;;4.63;4.22;;;;;;;;;;2081291;28;20172;-56
2022/07/19 00:12:20;;;;;;;5.22;4.65;;;;;;;;;;2081508;28;20764;-53
2022/07/19 00:13:21;;;;;;;5.50;4.47;;;;;;;;;;2080877;28;20249;-55
2022/07/19 00:14:21;;;;;;;4.82;4.40;;;;;;;;;;2080618;28;20211;-56
2022/07/19 00:15:22;;;;;;;4.68;4.30;;;;;;;;;;2081423;28;20222;-55
2022/07/19 00:16:22;;;;;;;5.07;4.47;;;;;;;;;;2081479;28;20180;-54
2022/07/19 00:17:22;;;;;;;5.10;4.60;;;;;;;;;;2081550;28;20205;-48
2022/07/19 00:18:23;;;;;;;5.47;4.30;;;;;;;;;;2081444;28;20207;-51
2022/07/19 00:19:23;;;;;;;4.93;4.43;;;;;;;;;;2081626;28;20172;-52
2022/07/19 00:20:24;;;;;;;5.20;4.70;;;;;;;;;;2081817;28;20207;-55
2022/07/19 00:21:24;;;;;;;7.60;5.03;;;;;;;;;;2081561;28;20164;-52
2022/07/19 00:22:24;;;;;;;5.25;4.75;;;;;;;;;;2081684;28;20259;-54
2022/07/19 00:23:25;;;;;;;4.50;4.05;;;;;;;;;;2072768;28;20643;-51
2022/07/19 00:24:25;;;;;;;4.40;4.10;;;;;;;;;;2071732;28;20181;-53
2022/07/19 00:25:25;;;;;;;6.07;4.28;;;;;;;;;;2081435;28;20183;-57
2022/07/19 00:26:29;;;;;;;8.57;5.00;;;;;;;;;;2081250;28;20168;-56
2022/07/19 00:27:30;;;;;;;6.68;4.47;;;;;;;;;;2072377;28;20177;-54
2022/07/19 00:28:30;;;;;;;7.82;4.15;;;;;;;;;;2072525;28;20179;-56
2022/07/19 00:29:31;;;;;;;6.57;5.20;;;;;;;;;;2082156;28;20172;-57
2022/07/19 00:30:31;;;;;;;7.07;4.60;;;;;;;;;;2082245;28;20221;-53
2022/07/19 00:31:31;;;;;;;4.85;4.35;;;;;;;;;;2082397;28;20188;-58
2022/07/19 00:32:32;;;;;;;7.75;5.00;;;;;;;;;;2082806;28;20172;-54
2022/07/19 00:33:32;;;;;;;6.75;4.72;;;;;;;;;;2082994;28;20641;-54
2022/07/19 00:34:32;;;;;;;5.75;4.97;;;;;;;;;;2081692;28;20166;-55
2022/07/19 00:35:33;;;;;;;6.00;4.28;;;;;;;;;;2082933;28;20172;-55
2022/07/19 00:36:33;;;;;;;7.20;4.65;;;;;;;;;;2082677;28;20164;-57
2022/07/19 00:37:33;;;;;;;5.43;4.88;;;;;;;;;;2083042;28;20204;-53
2022/07/19 00:38:34;;;;;;;5.75;4.68;;;;;;;;;;2082833;28;20174;-55
2022/07/19 00:39:34;;;;;;;6.80;4.85;;;;;;;;;;2083038;28;20179;-55
2022/07/19 00:40:35;;;;;;;5.32;4.82;;;;;;;;;;2082863;28;20272;-53
2022/07/19 00:41:42;;;;;;;6.18;4.78;;;;;;;;;;2082699;28;20188;-54
2022/07/19 00:42:43;;;;;;;10.60;4.88;;;;;;;;;;2082613;28;20579;-55
2022/07/19 00:43:43;;;;;;;7.40;5.10;;;;;;;;;;2082801;28;20214;-56
2022/07/19 00:44:44;;;;;;;5.13;4.65;;;;;;;;;;2081866;28;20181;-55
2022/07/19 00:45:44;;;;;;;4.47;4.13;;;;;;;;;;2082556;28;20168;-52
2022/07/19 00:46:45;;;;;;;4.43;3.88;;;;;;;;;;2082514;28;20203;-55
2022/07/19 00:47:45;;;;;;;8.38;4.25;;;;;;;;;;2083016;28;20197;-54
2022/07/19 00:48:46;;;;;;;4.53;4.10;;;;;;;;;;2082878;28;20172;-57
2022/07/19 00:49:46;;;;;;;5.80;4.47;;;;;;;;;;2082750;28;20187;-55
2022/07/19 00:50:47;;;;;;;6.53;4.50;;;;;;;;;;2065599;28;20176;-51
2022/07/19 00:51:48;;;;;;;5.40;4.68;;;;;;;;;;2066057;28;20252;-53
2022/07/19 00:52:50;;;;;;;6.38;4.53;;;;;;;;;;2082633;28;20249;-55
2022/07/19 00:53:52;;;;;;;5.88;4.85;;;;;;;;;;2082805;28;20551;-50
2022/07/19 00:54:53;;;;;;;4.78;4.38;;;;;;;;;;2082309;28;20187;-54
2022/07/19 00:55:54;;;;;;;4.80;4.35;;;;;;;;;;2082950;28;20210;-52
2022/07/19 00:56:54;;;;;;;4.78;4.32;;;;;;;;;;2074024;28;20211;-54
2022/07/19 00:57:55;;;;;;;5.32;4.25;;;;;;;;;;2073684;28;20769;-53
2022/07/19 00:58:56;;;;;;;7.43;4.15;;;;;;;;;;2082758;28;20210;-56
2022/07/19 00:59:57;;;;;;;4.35;4.00;;;;;;;;;;2082878;28;20672;-51
2022/07/19 01:00:57;;;;;;;5.78;4.70;;;;;;;;;;2082691;28;20168;-55
2022/07/19 01:01:58;;;;;;;5.25;4.65;;;;;;;;;;2082770;28;20200;-56
2022/07/19 01:02:59;;;;;;;5.07;4.55;;;;;;;;;;2082445;28;20176;-55
2022/07/19 01:03:59;;;;;;;6.15;4.30;;;;;;;;;;2082131;28;20242;-54
2022/07/19 01:05:00;;;;;;;6.07;4.35;;;;;;;;;;2082780;28;20211;-53
2022/07/19 01:06:01;;;;;;;4.97;4.57;;;;;;;;;;2082536;28;20620;-53
2022/07/19 01:07:01;;;;;;;7.60;4.47;;;;;;;;;;2082526;28;20208;-55
2022/07/19 01:08:02;;;;;;;5.28;4.82;;;;;;;;;;2082657;28;20192;-53
2022/07/19 01:09:03;;;;;;;4.95;4.45;;;;;;;;;;2082855;28;20160;-54
2022/07/19 01:10:03;;;;;;;4.75;4.20;;;;;;;;;;2082858;28;20663;-49
2022/07/19 01:11:05;;;;;;;4.75;4.13;;;;;;;;;;2083088;28;20169;-52
2022/07/19 01:12:06;;;;;;;5.03;4.18;;;;;;;;;;2082352;28;20196;-52
2022/07/19 01:13:06;;;;;;;6.32;4.80;;;;;;;;;;2082806;28;20599;-54
2022/07/19 01:14:07;;;;;;;5.50;4.60;;;;;;;;;;2072993;28;20680;-51
2022/07/19 01:15:14;;;;;;;7.80;4.80;;;;;;;;;;2065957;28;20165;-63
2022/07/19 01:16:15;;;;;;;8.50;4.55;;;;;;;;;;2074951;28;20184;-54
2022/07/19 01:17:16;;;;;;;5.13;4.65;;;;;;;;;;2074021;28;20169;-54
2022/07/19 01:18:16;;;;;;;7.22;5.50;;;;;;;;;;2073737;28;20200;-54
2022/07/19 01:19:17;;;;;;;6.90;5.05;;;;;;;;;;2082597;28;20287;-54
2022/07/19 01:20:18;;;;;;;7.75;4.88;;;;;;;;;;2082498;28;20173;-53
2022/07/19 01:21:22;;;;;;;6.32;4.50;;;;;;;;;;2082564;28;20203;-54
2022/07/19 01:22:23;;;;;;;5.40;4.90;;;;;;;;;;2082552;28;20173;-54
2022/07/19 01:23:23;;;;;;;6.15;4.90;;;;;;;;;;2082187;28;20191;-53
2022/07/19 01:24:23;;;;;;;6.72;4.05;;;;;;;;;;2078817;28;20176;-58
2022/07/19 01:25:25;;;;;;;8.05;5.43;;;;;;;;;;2073853;28;20175;-54
2022/07/19 01:26:25;;;;;;;7.35;5.18;;;;;;;;;;2073962;28;20181;-57
2022/07/19 01:27:25;;;;;;;5.80;5.20;;;;;;;;;;2082675;28;20252;-56
2022/07/19 01:28:26;;;;;;;4.30;4.00;;;;;;;;;;2082615;28;20172;-56
2022/07/19 01:29:26;;;;;;;5.43;4.40;;;;;;;;;;2082193;28;20675;-53
2022/07/19 01:30:27;;;;;;;5.82;5.20;;;;;;;;;;2082762;28;20645;-54
2022/07/19 01:31:27;;;;;;;5.25;4.50;;;;;;;;;;2082753;28;21878;-53
2022/07/19 01:32:27;;;;;;;4.75;4.10;;;;;;;;;;2082419;28;20219;-52
2022/07/19 01:33:28;;;;;;;5.50;4.30;;;;;;;;;;2082574;28;20583;-54
2022/07/19 01:34:28;;;;;;;6.60;4.57;;;;;;;;;;2081712;28;20654;-53
2022/07/19 01:35:31;;;;;;;11.57;4.57;;;;;;;;;;2082561;28;20180;-54
2022/07/19 01:36:31;;;;;;;5.63;4.18;;;;;;;;;;2074019;28;20173;-55
2022/07/19 01:37:32;;;;;;;5.10;4.70;;;;;;;;;;2073475;28;20664;-56
2022/07/19 01:38:32;;;;;;;5.18;4.75;;;;;;;;;;2082381;28;20263;-52
2022/07/19 01:39:32;;;;;;;6.93;5.50;;;;;;;;;;2080745;28;20206;-54
2022/07/19 01:40:33;;;;;;;6.93;4.78;;;;;;;;;;2073523;28;20692;-54
2022/07/19 01:41:33;;;;;;;6.78;5.38;;;;;;;;;;2073312;28;20199;-54
2022/07/19 01:42:34;;;;;;;5.03;4.60;;;;;;;;;;2082680;28;20167;-52
2022/07/19 01:43:34;;;;;;;6.10;5.28;;;;;;;;;;2082616;28;20192;-51
2022/07/19 01:44:34;;;;;;;6.63;4.40;;;;;;;;;;2081799;28;20164;-52
2022/07/19 01:45:35;;;;;;;5.13;4.55;;;;;;;;;;2082420;28;20176;-53
2022/07/19 01:46:35;;;;;;;7.22;4.85;;;;;;;;;;2082545;28;20207;-55
2022/07/19 01:47:36;;;;;;;7.10;5.68;;;;;;;;;;2073675;28;20176;-49
2022/07/19 01:48:36;;;;;;;6.28;4.88;;;;;;;;;;2073719;28;20184;-56
2022/07/19 01:49:37;;;;;;;6.05;4.88;;;;;;;;;;2082360;28;20174;-52
2022/07/19 01:50:37;;;;;;;5.53;4.50;;;;;;;;;;2081903;28;20234;-55
2022/07/19 01:51:38;;;;;;;9.25;4.70;;;;;;;;;;2082234;28;20279;-55
2022/07/19 01:52:38;;;;;;;9.23;4.85;;;;;;;;;;2082241;28;20184;-54
2022/07/19 01:53:39;;;;;;;5.18;4.75;;;;;;;;;;2082308;28;20187;-54
2022/07/19 01:54:39;;;;;;;4.90;4.50;;;;;;;;;;2081435;28;20175;-51
2022/07/19 01:55:39;;;;;;;5.47;4.70;;;;;;;;;;2082347;28;20179;-55
2022/07/19 01:56:43;;;;;;;4.93;4.47;;;;;;;;;;2082188;28;20196;-55
2022/07/19 01:57:43;;;;;;;6.30;4.20;;;;;;;;;;2082263;28;20259;-51
2022/07/19 01:58:43;;;;;;;7.60;4.97;;;;;;;;;;2082121;28;20188;-54
2022/07/19 01:59:44;;;;;;;5.13;4.72;;;;;;;;;;2082216;28;20171;-56
2022/07/19 02:00:45;;;;;;;6.03;5.43;;;;;;;;;;2082226;28;20243;-55
2022/07/19 02:01:45;;;;;;;6.10;5.35;;;;;;;;;;2082080;28;20192;-55
2022/07/19 02:02:45;;;;;;;5.07;4.63;;;;;;;;;;2073245;28;20205;-50
2022/07/19 02:03:46;;;;;;;5.10;4.55;;;;;;;;;;2073431;28;20548;-55
2022/07/19 02:04:46;;;;;;;5.50;5.00;;;;;;;;;;2072795;28;20232;-53
2022/07/19 02:05:46;;;;;;;5.60;4.82;;;;;;;;;;2073438;28;20244;-51
2022/07/19 02:06:47;;;;;;;5.60;5.00;;;;;;;;;;2073443;28;20192;-49
2022/07/19 02:07:47;;;;;;;5.78;5.28;;;;;;;;;;2073138;28;20172;-49
2022/07/19 02:08:47;;;;;;;5.72;4.72;;;;;;;;;;2082363;28;20199;-54
2022/07/19 02:09:48;;;;;;;7.03;4.78;;;;;;;;;;2073229;28;20269;-48
2022/07/19 02:10:48;;;;;;;5.35;4.93;;;;;;;;;;2073578;28;20165;-57
2022/07/19 02:11:49;;;;;;;5.95;4.65;;;;;;;;;;2081971;28;20281;-54
2022/07/19 02:12:49;;;;;;;6.05;5.20;;;;;;;;;;2081850;28;20172;-55
2022/07/19 02:13:49;;;;;;;5.50;4.97;;;;;;;;;;2082164;28;20759;-55
2022/07/19 02:14:50;;;;;;;5.00;4.55;;;;;;;;;;2081436;28;20182;-53
2022/07/19 02:15:50;;;;;;;4.97;4.35;;;;;;;;;;2082212;28;20160;-54
2022/07/19 02:16:51;;;;;;;7.78;5.05;;;;;;;;;;2081879;28;20251;-58
2022/07/19 02:17:51;;;;;;;5.47;4.90;;;;;;;;;;2082194;28;20181;-54
2022/07/19 02:18:52;;;;;;;6.57;4.80;;;;;;;;;;2082096;28;20603;-53
2022/07/19 02:19:52;;;;;;;4.95;4.55;;;;;;;;;;2076646;28;20254;-54
2022/07/19 02:20:52;;;;;;;5.25;4.75;;;;;;;;;;2081428;28;20756;-54
2022/07/19 02:21:52;;;;;;;8.30;5.05;;;;;;;;;;2081810;28;20199;-52
2022/07/19 02:22:53;;;;;;;5.32;4.82;;;;;;;;;;2082121;28;20230;-53
2022/07/19 02:23:53;;;;;;;6.30;4.85;;;;;;;;;;2081753;28;20252;-54
2022/07/19 02:24:53;;;;;;;5.80;5.10;;;;;;;;;;2081549;28;20184;-54
2022/07/19 02:25:54;;;;;;;5.70;4.95;;;;;;;;;;2082042;28;20238;-56
2022/07/19 02:26:54;;;;;;;5.60;5.10;;;;;;;;;;2081742;28;20214;-55
2022/07/19 02:27:54;;;;;;;10.20;5.50;;;;;;;;;;2082126;28;20675;-53
2022/07/19 02:28:55;;;;;;;5.57;4.85;;;;;;;;;;2082001;28;20178;-55
2022/07/19 02:29:55;;;;;;;5.68;5.13;;;;;;;;;;2073619;28;20220;-56
2022/07/19 02:30:55;;;;;;;7.35;5.32;;;;;;;;;;2075885;28;20975;-56
2022/07/19 02:31:56;;;;;;;7.53;4.85;;;;;;;;;;2085013;28;20192;-57
2022/07/19 02:32:56;;;;;;;6.05;4.85;;;;;;;;;;2082400;28;20649;-56
2022/07/19 02:33:56;;;;;;;5.35;4.95;;;;;;;;;;2081485;28;20183;-56
2022/07/19 02:34:57;;;;;;;6.80;5.03;;;;;;;;;;2081489;28;20214;-56
2022/07/19 02:35:57;;;;;;;5.78;4.95;;;;;;;;;;2082078;28;20298;-51
2022/07/19 02:36:57;;;;;;;7.55;4.85;;;;;;;;;;2081960;28;20226;-52
2022/07/19 02:37:58;;;;;;;5.25;4.53;;;;;;;;;;2081759;28;20176;-55
2022/07/19 02:38:59;;;;;;;7.95;5.25;;;;;;;;;;2073049;28;20176;-56
2022/07/19 02:39:59;;;;;;;5.60;4.95;;;;;;;;;;2073333;28;20657;-54
2022/07/19 02:40:59;;;;;;;5.45;4.95;;;;;;;;;;2081837;28;20213;-56
2022/07/19 02:42:00;;;;;;;4.65;4.25;;;;;;;;;;2081918;28;20575;-53
2022/07/19 02:43:00;;;;;;;5.68;4.90;;;;;;;;;;2081677;28;20172;-57
2022/07/19 02:44:01;;;;;;;5.22;4.78;;;;;;;;;;2080862;28;20181;-51
2022/07/19 02:45:02;;;;;;;6.13;5.20;;;;;;;;;;2078254;28;20235;-52
2022/07/19 02:46:02;;;;;;;5.32;4.78;;;;;;;;;;2077568;28;20168;-56
2022/07/19 02:47:02;;;;;;;5.35;4.82;;;;;;;;;;2081090;28;20295;-51
2022/07/19 02:48:04;;;;;;;5.70;5.20;;;;;;;;;;2069232;28;20185;-55
2022/07/19 02:49:04;;;;;;;5.32;4.82;;;;;;;;;;2072604;28;20264;-56
2022/07/19 02:50:05;;;;;;;6.05;5.47;;;;;;;;;;2081768;28;20157;-55
2022/07/19 02:51:09;;;;;;;6.68;4.80;;;;;;;;;;2082110;28;20620;-53
2022/07/19 02:52:09;;;;;;;5.60;5.05;;;;;;;;;;2081738;28;20168;-54
2022/07/19 02:53:10;;;;;;;5.75;4.53;;;;;;;;;;2081074;28;20536;-50
2022/07/19 02:54:10;;;;;;;5.22;4.72;;;;;;;;;;2080771;28;20191;-52
2022/07/19 02:55:10;;;;;;;6.13;4.68;;;;;;;;;;2081956;28;20171;-56
2022/07/19 02:56:11;;;;;;;7.05;5.45;;;;;;;;;;2081842;28;20168;-55
2022/07/19 02:57:11;;;;;;;7.88;5.13;;;;;;;;;;2081962;28;20592;-53
2022/07/19 02:58:12;;;;;;;5.40;4.90;;;;;;;;;;2081361;28;20168;-54
2022/07/19 02:59:12;;;;;;;6.45;5.05;;;;;;;;;;2081842;28;20168;-53
2022/07/19 03:00:13;;;;;;;5.97;5.38;;;;;;;;;;2064575;28;20185;-49
2022/07/19 03:01:13;;;;;;;6.75;4.90;;;;;;;;;;2064217;28;20213;-54
2022/07/19 03:02:13;;;;;;;5.10;4.60;;;;;;;;;;2081058;28;20271;-54
2022/07/19 03:04:33;;;;;;;8.63;5.05;;;;;;;;;;2069162;28;20638;-53
2022/07/19 03:05:33;;;;;;;5.43;4.93;;;;;;;;;;2082014;28;20176;-54
2022/07/19 03:06:33;;;;;;;5.75;4.88;;;;;;;;;;2081643;28;20188;-53
2022/07/19 03:07:34;;;;;;;5.95;5.47;;;;;;;;;;2081819;28;20299;-55
2022/07/19 03:08:34;;;;;;;7.95;5.18;;;;;;;;;;2072927;28;20231;-56
2022/07/19 03:09:34;;;;;;;8.45;5.88;;;;;;;;;;2073223;28;20541;-54
2022/07/19 03:10:34;;;;;;;7.00;5.10;;;;;;;;;;2081771;28;20651;-54
2022/07/19 03:11:35;;;;;;;8.98;5.25;;;;;;;;;;2081763;28;20635;-55
2022/07/19 03:12:35;;;;;;;5.63;5.00;;;;;;;;;;2081231;28;20157;-53
2022/07/19 03:13:36;;;;;;;5.57;5.03;;;;;;;;;;2081779;28;20199;-54
2022/07/19 03:14:36;;;;;;;7.05;5.40;;;;;;;;;;2080771;28;20168;-60
2022/07/19 03:15:36;;;;;;;8.82;5.30;;;;;;;;;;2081842;28;20625;-55
2022/07/19 03:16:37;;;;;;;6.47;5.07;;;;;;;;;;2081570;28;20184;-53
2022/07/19 03:17:37;;;;;;;6.80;5.28;;;;;;;;;;2082000;28;20210;-54
2022/07/19 03:18:37;;;;;;;5.70;5.18;;;;;;;;;;2081625;28;20310;-53
2022/07/19 03:19:38;;;;;;;5.45;4.80;;;;;;;;;;2081775;28;20647;-53
2022/07/19 03:20:38;;;;;;;7.07;5.53;;;;;;;;;;2081745;28;20545;-54
2022/07/19 03:21:38;;;;;;;5.78;5.28;;;;;;;;;;2081525;28;20611;-54
2022/07/19 03:22:39;;;;;;;5.90;5.30;;;;;;;;;;2081402;28;20611;-51
2022/07/19 03:23:39;;;;;;;9.10;5.50;;;;;;;;;;2081767;28;20214;-52
2022/07/19 03:24:39;;;;;;;6.50;5.93;;;;;;;;;;2080799;28;20164;-52
2022/07/19 03:25:40;;;;;;;8.50;5.55;;;;;;;;;;2081665;28;20543;-49
2022/07/19 03:26:40;;;;;;;5.72;5.22;;;;;;;;;;2081561;28;20167;-49
2022/07/19 03:27:40;;;;;;;5.50;4.97;;;;;;;;;;2081492;28;20685;-51
2022/07/19 03:28:41;;;;;;;7.47;5.63;;;;;;;;;;2081565;28;20242;-55
2022/07/19 03:29:41;;;;;;;5.97;5.18;;;;;;;;;;2081624;28;20164;-54
2022/07/19 03:30:42;;;;;;;7.65;5.50;;;;;;;;;;2072031;28;20613;-53
2022/07/19 03:31:43;;;;;;;6.05;5.53;;;;;;;;;;2072477;28;20677;-56
2022/07/19 03:32:43;;;;;;;5.40;4.93;;;;;;;;;;2081767;28;20200;-53
2022/07/19 03:33:43;;;;;;;7.57;5.18;;;;;;;;;;2081050;28;20192;-53
2022/07/19 03:34:44;;;;;;;7.85;5.60;;;;;;;;;;2080906;28;20167;-54
2022/07/19 03:35:45;;;;;;;6.93;4.90;;;;;;;;;;2081581;28;20184;-56
2022/07/19 03:36:45;;;;;;;5.68;5.28;;;;;;;;;;2081667;28;20165;-56
2022/07/19 03:37:46;;;;;;;5.68;5.20;;;;;;;;;;2081536;28;20587;-55
2022/07/19 03:38:47;;;;;;;5.50;5.07;;;;;;;;;;2081339;28;20667;-55
2022/07/19 03:39:47;;;;;;;5.90;5.28;;;;;;;;;;2081645;28;20643;-49
2022/07/19 03:40:47;;;;;;;6.45;5.50;;;;;;;;;;2081574;28;20259;-53
2022/07/19 03:41:48;;;;;;;7.38;5.13;;;;;;;;;;2081381;28;20665;-55
2022/07/19 03:42:48;;;;;;;5.63;5.13;;;;;;;;;;2081873;28;20247;-53
2022/07/19 03:43:49;;;;;;;6.20;5.60;;;;;;;;;;2072907;28;20221;-53
2022/07/19 03:44:49;;;;;;;8.60;5.25;;;;;;;;;;2072354;28;20173;-55
2022/07/19 03:45:50;;;;;;;6.28;5.07;;;;;;;;;;2081026;28;20219;-56
2022/07/19 03:46:50;;;;;;;5.10;4.70;;;;;;;;;;2081657;28;20699;-51
2022/07/19 03:47:51;;;;;;;6.43;5.25;;;;;;;;;;2072948;28;20320;-55
2022/07/19 03:48:51;;;;;;;5.50;4.88;;;;;;;;;;2064883;28;20173;-53
2022/07/19 03:49:52;;;;;;;7.97;5.05;;;;;;;;;;2064338;28;20205;-52
2022/07/19 03:50:52;;;;;;;8.18;5.40;;;;;;;;;;2070871;28;20207;-50
2022/07/19 03:51:53;;;;;;;5.57;4.97;;;;;;;;;;2081506;28;20200;-56
2022/07/19 03:52:53;;;;;;;6.05;5.30;;;;;;;;;;2081822;28;20171;-54
2022/07/19 03:53:54;;;;;;;7.13;5.22;;;;;;;;;;2081269;28;20247;-54
2022/07/19 03:54:54;;;;;;;8.00;5.70;;;;;;;;;;2081379;28;20164;-54
2022/07/19 03:55:54;;;;;;;6.00;5.45;;;;;;;;;;2081136;28;20653;-50
2022/07/19 03:56:55;;;;;;;6.57;5.95;;;;;;;;;;2081503;28;20656;-52
2022/07/19 03:57:55;;;;;;;6.43;5.60;;;;;;;;;;2081585;28;20179;-54
2022/07/19 03:58:55;;;;;;;7.68;5.45;;;;;;;;;;2081673;28;20633;-55
2022/07/19 03:59:56;;;;;;;7.13;5.70;;;;;;;;;;2081409;28;20180;-52
2022/07/19 04:00:56;;;;;;;5.90;5.45;;;;;;;;;;2081895;28;20164;-54
2022/07/19 04:01:56;;;;;;;6.40;5.75;;;;;;;;;;2081999;28;20199;-54
2022/07/19 04:02:57;;;;;;;6.00;5.40;;;;;;;;;;2081915;28;20164;-52
2022/07/19 04:03:57;;;;;;;9.02;5.95;;;;;;;;;;2081260;28;20188;-56
2022/07/19 04:04:57;;;;;;;8.15;5.65;;;;;;;;;;2081082;28;20183;-56
2022/07/19 04:05:58;;;;;;;5.93;5.32;;;;;;;;;;2081797;28;20172;-56
2022/07/19 04:06:58;;;;;;;5.90;5.30;;;;;;;;;;2081570;28;20553;-52
2022/07/19 04:07:58;;;;;;;6.10;5.60;;;;;;;;;;2081601;28;20578;-53
2022/07/19 04:08:59;;;;;;;6.57;5.80;;;;;;;;;;2081439;28;20168;-51
2022/07/19 04:09:59;;;;;;;6.85;6.10;;;;;;;;;;2081219;28;20171;-53
2022/07/19 04:11:00;;;;;;;6.65;5.57;;;;;;;;;;2081321;28;20179;-53
2022/07/19 04:12:00;;;;;;;8.85;5.78;;;;;;;;;;2093944;23;20978;-52
2022/07/19 04:13:00;;;;;;;6.25;5.65;;;;;;;;;;2088072;28;20188;-52
2022/07/19 04:14:01;;;;;;;7.35;6.10;;;;;;;;;;2088197;28;20210;-50
2022/07/19 04:15:01;;;;;;;6.68;5.82;;;;;;;;;;2089573;28;20195;-52
2022/07/19 04:16:02;;;;;;;7.00;6.20;;;;;;;;;;2089379;28;20660;-54
2022/07/19 04:17:04;;;;;;;7.03;6.32;;;;;;;;;;2089014;28;20175;-55
2022/07/19 04:18:04;;;;;;;8.63;5.72;;;;;;;;;;2089472;28;20246;-55
2022/07/19 04:19:05;;;;;;;7.57;6.47;;;;;;;;;;2088354;28;20190;-54
2022/07/19 04:20:06;;;;;;;6.65;6.05;;;;;;;;;;2075881;28;20185;-57
2022/07/19 04:21:06;;;;;;;8.15;5.95;;;;;;;;;;2084075;28;20190;-51
2022/07/19 04:22:07;;;;;;;10.55;6.00;;;;;;;;;;2089372;28;20199;-53
2022/07/19 04:23:07;;;;;;;10.95;6.35;;;;;;;;;;2089503;28;20250;-51
2022/07/19 04:24:07;;;;;;;7.30;6.03;;;;;;;;;;2088867;28;20242;-54
2022/07/19 04:25:08;;;;;;;5.90;5.40;;;;;;;;;;2086935;28;20195;-55
2022/07/19 04:26:09;;;;;;;6.60;5.80;;;;;;;;;;2081195;28;20680;-56
2022/07/19 04:27:09;;;;;;;7.53;6.07;;;;;;;;;;2089489;28;20203;-51
2022/07/19 04:28:09;;;;;;;6.90;5.80;;;;;;;;;;2089636;28;20698;-55
2022/07/19 04:29:10;;;;;;;6.13;5.63;;;;;;;;;;2089266;28;20654;-54
2022/07/19 04:30:10;;;;;;;6.55;5.30;;;;;;;;;;2089597;28;20767;-52
2022/07/19 04:31:11;;;;;;;6.28;5.25;;;;;;;;;;2089491;28;20179;-54
2022/07/19 04:32:11;;;;;;;8.98;5.80;;;;;;;;;;2089421;28;20179;-54
2022/07/19 04:33:13;;;;;;;6.15;5.20;;;;;;;;;;2095043;28;20174;-58
2022/07/19 04:34:16;;;;;;;6.25;5.68;;;;;;;;;;2088474;28;20192;-50
2022/07/19 04:35:17;;;;;;;6.55;5.38;;;;;;;;;;2089721;28;20257;-54
2022/07/19 04:36:17;;;;;;;7.13;5.43;;;;;;;;;;2089938;28;20214;-55
2022/07/19 04:37:17;;;;;;;5.70;5.20;;;;;;;;;;2089724;28;20163;-56
2022/07/19 04:38:18;;;;;;;5.78;4.85;;;;;;;;;;2089344;28;20179;-55
2022/07/19 04:39:18;;;;;;;8.15;5.70;;;;;;;;;;2080684;28;20172;-50
2022/07/19 04:40:18;;;;;;;6.07;5.57;;;;;;;;;;2080939;28;20236;-57
2022/07/19 04:41:19;;;;;;;9.43;5.63;;;;;;;;;;2089733;28;20180;-50
2022/07/19 04:42:19;;;;;;;6.07;5.43;;;;;;;;;;2089764;28;20187;-56
2022/07/19 04:43:19;;;;;;;5.57;4.75;;;;;;;;;;2078949;28;20254;-50
2022/07/19 04:44:20;;;;;;;8.85;5.13;;;;;;;;;;2071751;28;20615;-53
2022/07/19 04:45:20;;;;;;;6.15;5.55;;;;;;;;;;2087309;28;20190;-54
2022/07/19 04:46:20;;;;;;;7.25;5.50;;;;;;;;;;2091839;28;20187;-54
2022/07/19 04:47:21;;;;;;;6.28;5.55;;;;;;;;;;2091249;28;20231;-53
2022/07/19 04:48:21;;;;;;;5.90;5.35;;;;;;;;;;2090351;28;20217;-56
2022/07/19 04:49:21;;;;;;;5.68;4.88;;;;;;;;;;2089405;28;20663;-54
2022/07/19 04:50:22;;;;;;;6.35;5.85;;;;;;;;;;2089539;28;20175;-55
2022/07/19 04:51:22;;;;;;;6.53;5.18;;;;;;;;;;2089455;28;20172;-57
2022/07/19 04:52:23;;;;;;;5.65;5.10;;;;;;;;;;2080854;28;20180;-55
2022/07/19 04:53:23;;;;;;;6.10;4.90;;;;;;;;;;2080813;28;20650;-58
2022/07/19 04:54:23;;;;;;;5.47;4.50;;;;;;;;;;2081021;28;20650;-56
2022/07/19 04:55:24;;;;;;;8.43;5.15;;;;;;;;;;2082298;28;20169;-55
2022/07/19 04:56:24;;;;;;;6.25;5.47;;;;;;;;;;2086150;28;20258;-53
2022/07/19 04:57:24;;;;;;;5.90;5.00;;;;;;;;;;2091505;28;20184;-57
2022/07/19 04:58:25;;;;;;;4.85;4.40;;;;;;;;;;2091482;28;20596;-54
2022/07/19 04:59:25;;;;;;;5.25;4.72;;;;;;;;;;2090256;28;20241;-52
2022/07/19 05:00:25;;;;;;;6.68;5.03;;;;;;;;;;2089610;28;20195;-57
2022/07/19 05:01:26;;;;;;;9.38;4.93;;;;;;;;;;2089956;28;20640;-56
2022/07/19 05:02:26;;;;;;;5.88;5.05;;;;;;;;;;2089320;28;20204;-57
2022/07/19 05:03:26;;;;;;;8.85;5.20;;;;;;;;;;2090074;28;20203;-55
2022/07/19 05:04:27;;;;;;;7.32;5.60;;;;;;;;;;2089380;28;20175;-56
2022/07/19 05:05:27;;;;;;;7.15;5.40;;;;;;;;;;2092077;28;20720;-55
2022/07/19 05:06:28;;;;;;;5.97;5.47;;;;;;;;;;2091999;28;20644;-57
2022/07/19 05:07:28;;;;;;;11.73;5.90;;;;;;;;;;2091863;28;20302;-55
2022/07/19 05:08:28;;;;;;;10.30;6.35;;;;;;;;;;2092135;28;20178;-56
2022/07/19 05:09:28;;;;;;;7.13;5.88;;;;;;;;;;2083623;28;20656;-56
2022/07/19 05:10:29;;;;;;;8.55;5.80;;;;;;;;;;2083515;28;20176;-52
2022/07/19 05:11:29;;;;;;;7.55;6.05;;;;;;;;;;2091954;28;20648;-55
2022/07/19 05:12:30;;;;;;;8.25;5.85;;;;;;;;;;2092020;28;20188;-59
2022/07/19 05:13:30;;;;;;;10.70;5.45;;;;;;;;;;2092820;28;20626;-57
2022/07/19 05:14:31;;;;;;;6.70;6.10;;;;;;;;;;2091682;28;20624;-59
2022/07/19 05:15:31;;;;;;;6.00;5.43;;;;;;;;;;2092307;28;20179;-59
2022/07/19 05:16:31;;;;;;;8.13;6.20;;;;;;;;;;2093475;28;20581;-58
2022/07/19 05:17:32;;;;;;;9.48;6.43;;;;;;;;;;2077221;28;20184;-57
2022/07/19 05:18:32;;;;;;;7.75;5.32;;;;;;;;;;2076068;28;20670;-57
2022/07/19 05:19:32;;;;;;;7.00;5.28;;;;;;;;;;2092413;28;20183;-57
2022/07/19 05:20:33;;;;;;;7.65;6.15;;;;;;;;;;2096792;28;20195;-58
2022/07/19 05:21:33;;;;;;;6.15;5.32;;;;;;;;;;2094028;28;20214;-56
2022/07/19 05:22:33;;;;;;;10.43;5.32;;;;;;;;;;2083701;28;20186;-54
2022/07/19 05:23:34;;;;;;;7.47;5.85;;;;;;;;;;2090498;28;20175;-56
2022/07/19 05:24:34;;;;;;;7.13;5.15;;;;;;;;;;2092095;28;20183;-60
2022/07/19 05:25:34;;;;;;;7.15;5.32;;;;;;;;;;2092644;28;20706;-57
2022/07/19 05:26:35;;;;;;;6.15;5.05;;;;;;;;;;2092851;28;20186;-58
2022/07/19 05:27:36;;;;;;;7.85;5.60;;;;;;;;;;2084017;28;20201;-56
2022/07/19 05:28:36;;;;;;;6.95;4.72;;;;;;;;;;2083325;28;20165;-54
2022/07/19 05:29:37;;;;;;;7.40;4.75;;;;;;;;;;2088698;28;20180;-57
2022/07/19 05:30:37;;;;;;;11.43;5.22;;;;;;;;;;2087878;28;20164;-56
2022/07/19 05:31:37;;;;;;;6.57;4.90;;;;;;;;;;2088265;28;20190;-54
2022/07/19 05:32:38;;;;;;;6.30;4.97;;;;;;;;;;2087999;28;20168;-55
2022/07/19 05:33:38;;;;;;;10.38;5.70;;;;;;;;;;2087952;28;20230;-56
2022/07/19 05:34:39;;;;;;;6.60;4.95;;;;;;;;;;2089784;28;20184;-54
2022/07/19 05:35:39;;;;;;;9.25;4.80;;;;;;;;;;2092773;28;20175;-55
2022/07/19 05:36:39;;;;;;;8.05;4.60;;;;;;;;;;2089547;28;20195;-58
2022/07/19 05:37:40;;;;;;;5.25;4.75;;;;;;;;;;2092162;28;20191;-52
2022/07/19 05:38:40;;;;;;;5.57;5.00;;;;;;;;;;2100104;28;20177;-56
2022/07/19 05:39:40;;;;;;;4.45;3.95;;;;;;;;;;2093849;28;20790;-52
2022/07/19 05:40:41;;;;;;;5.43;4.35;;;;;;;;;;2084066;28;20172;-58
2022/07/19 05:41:42;;;;;;;8.45;5.35;;;;;;;;;;2083860;28;20177;-56
2022/07/19 05:42:42;;;;;;;7.30;5.28;;;;;;;;;;2092088;28;20269;-56
2022/07/19 05:43:43;;;;;;;5.65;4.50;;;;;;;;;;2083531;28;20653;-52
2022/07/19 05:44:43;;;;;;;5.55;4.30;;;;;;;;;;2083017;28;20986;-57
2022/07/19 05:45:44;;;;;;;4.95;4.35;;;;;;;;;;2086804;28;20222;-58
2022/07/19 05:46:44;;;;;;;6.63;4.68;;;;;;;;;;2091986;28;20274;-57
2022/07/19 05:47:45;;;;;;;5.53;4.28;;;;;;;;;;2091298;28;20672;-54
2022/07/19 05:48:45;;;;;;;4.75;4.03;;;;;;;;;;2091993;28;20264;-56
2022/07/19 05:49:45;;;;;;;7.35;4.93;;;;;;;;;;2092118;28;20176;-57
2022/07/19 05:50:46;;;;;;;5.47;3.88;;;;;;;;;;2092249;28;20233;-57
2022/07/19 05:51:46;;;;;;;7.43;4.38;;;;;;;;;;2091842;28;20167;-67
2022/07/19 05:52:47;;;;;;;4.90;4.05;;;;;;;;;;2091488;28;20221;-57
2022/07/19 05:53:47;;;;;;;9.75;4.43;;;;;;;;;;2093270;28;20263;-51
2022/07/19 05:54:48;;;;;;;5.50;3.90;;;;;;;;;;2083694;28;20168;-53
2022/07/19 05:55:48;;;;;;;4.82;4.32;;;;;;;;;;2084126;28;20164;-56
2022/07/19 05:56:48;;;;;;;3.88;3.58;;;;;;;;;;2093093;28;20172;-55
2022/07/19 05:57:49;;;;;;;7.55;4.03;;;;;;;;;;2092145;28;20233;-58
2022/07/19 05:58:49;;;;;;;6.68;4.50;;;;;;;;;;2089552;28;20180;-56
2022/07/19 05:59:49;;;;;;;3.92;3.63;;;;;;;;;;2081340;28;20164;-55
2022/07/19 06:02:09;;;;;;;4.50;4.10;;;;;;;;;;2092210;28;20183;-51
2022/07/19 06:03:10;;;;;;;4.47;3.97;;;;;;;;;;2091534;28;20194;-56
2022/07/19 06:04:11;;;;;;;6.05;3.80;;;;;;;;;;2090115;28;20187;-54
2022/07/19 06:05:11;;;;;;;4.50;3.50;;;;;;;;;;2088481;28;20180;-51